sensor_id;sensor_type;location;lat;lon;timestamp;temperature;humidity
24374;DHT22;12498;50.880;12.096;2024-01-25T00:46:37;9.30;58.00
24374;DHT22;12498;50.880;12.096;2024-01-25T00:49:02;8.60;99.90
24374;DHT22;12498;50.880;12.096;2024-01-25T00:51:28;8.70;1.00
24374;DHT22;12498;50.880;12.096;2024-01-25T00:53:54;8.70;99.90
24374;DHT22;12498;50.880;12.096;2024-01-25T00:56:19;8.50;1.00
24374;DHT22;12498;50.880;12.096;2024-01-25T00:58:45;8.50;1.00
24374;DHT22;12498;50.880;12.096;2024-01-25T01:01:10;8.50;1.00
24374;DHT22;12498;50.880;12.096;2024-01-25T01:03:36;8.50;1.00
24374;DHT22;12498;50.880;12.096;2024-01-25T01:06:02;8.50;1.00
24374;DHT22;12498;50.880;12.096;2024-01-25T01:08:27;8.50;1.00
24374;DHT22;12498;50.880;12.096;2024-01-25T01:10:53;8.50;1.00
24374;DHT22;12498;50.880;12.096;2024-01-25T01:13:18;8.40;1.00
24374;DHT22;12498;50.880;12.096;2024-01-25T01:15:44;9.10;1.00
24374;DHT22;12498;50.880;12.096;2024-01-25T01:18:09;8.40;1.00
24374;DHT22;12498;50.880;12.096;2024-01-25T01:20:35;8.40;3.50
24374;DHT22;12498;50.880;12.096;2024-01-25T01:23:00;8.50;9.20
24374;DHT22;12498;50.880;12.096;2024-01-25T01:25:26;8.40;12.90
24374;DHT22;12498;50.880;12.096;2024-01-25T01:27:51;8.40;12.50
24374;DHT22;12498;50.880;12.096;2024-01-25T01:30:17;8.90;12.00
24374;DHT22;12498;50.880;12.096;2024-01-25T01:32:43;8.50;93.10
24374;DHT22;12498;50.880;12.096;2024-01-25T01:35:08;8.40;99.90
24374;DHT22;12498;50.880;12.096;2024-01-25T01:37:33;8.30;60.60
24374;DHT22;12498;50.880;12.096;2024-01-25T01:39:59;8.30;31.20
24374;DHT22;12498;50.880;12.096;2024-01-25T01:42:25;8.30;29.70
24374;DHT22;12498;50.880;12.096;2024-01-25T01:44:50;8.70;99.90
24374;DHT22;12498;50.880;12.096;2024-01-25T01:47:17;8.70;99.90
24374;DHT22;12498;50.880;12.096;2024-01-25T01:49:42;8.90;99.90
24374;DHT22;12498;50.880;12.096;2024-01-25T01:52:08;8.20;99.90
24374;DHT22;12498;50.880;12.096;2024-01-25T01:54:34;8.20;99.90
24374;DHT22;12498;50.880;12.096;2024-01-25T01:56:59;8.20;44.10
24374;DHT22;12498;50.880;12.096;2024-01-25T02:01:52;8.10;99.90
24374;DHT22;12498;50.880;12.096;2024-01-25T02:06:43;8.00;98.60
24374;DHT22;12498;50.880;12.096;2024-01-25T03:58:44;7.80;99.90
24374;DHT22;12498;50.880;12.096;2024-01-25T04:01:09;7.90;1.00
24374;DHT22;12498;50.880;12.096;2024-01-25T04:03:35;7.80;33.00
24374;DHT22;12498;50.880;12.096;2024-01-25T04:06:00;7.50;99.90
24374;DHT22;12498;50.880;12.096;2024-01-25T04:08:26;7.40;99.90
24374;DHT22;12498;50.880;12.096;2024-01-25T04:10:52;7.60;99.90
24374;DHT22;12498;50.880;12.096;2024-01-25T04:13:17;7.70;99.90
24374;DHT22;12498;50.880;12.096;2024-01-25T04:15:43;7.60;99.90
24374;DHT22;12498;50.880;12.096;2024-01-25T04:18:08;7.50;99.90
24374;DHT22;12498;50.880;12.096;2024-01-25T04:20:34;7.60;99.90
24374;DHT22;12498;50.880;12.096;2024-01-25T04:23:00;7.50;99.90
24374;DHT22;12498;50.880;12.096;2024-01-25T04:25:25;7.50;99.90
24374;DHT22;12498;50.880;12.096;2024-01-25T04:44:54;7.40;99.90
24374;DHT22;12498;50.880;12.096;2024-01-25T04:47:19;7.40;99.90
24374;DHT22;12498;50.880;12.096;2024-01-25T05:23:52;7.40;99.90
24374;DHT22;12498;50.880;12.096;2024-01-25T05:26:17;7.30;99.90
24374;DHT22;12498;50.880;12.096;2024-01-25T05:28:44;7.40;99.90
24374;DHT22;12498;50.880;12.096;2024-01-25T05:31:09;7.40;99.90
24374;DHT22;12498;50.880;12.096;2024-01-25T05:33:41;7.40;99.90
24374;DHT22;12498;50.880;12.096;2024-01-25T05:40:58;7.40;99.90
24374;DHT22;12498;50.880;12.096;2024-01-25T05:43:25;7.40;99.90
24374;DHT22;12498;50.880;12.096;2024-01-25T05:45:51;7.40;99.90
24374;DHT22;12498;50.880;12.096;2024-01-25T05:48:16;7.30;99.90
24374;DHT22;12498;50.880;12.096;2024-01-25T05:50:42;7.40;99.90
24374;DHT22;12498;50.880;12.096;2024-01-25T05:53:07;7.40;99.90
24374;DHT22;12498;50.880;12.096;2024-01-25T05:55:33;7.40;99.90
24374;DHT22;12498;50.880;12.096;2024-01-25T05:57:58;7.40;99.90
24374;DHT22;12498;50.880;12.096;2024-01-25T06:00:24;7.30;99.90
24374;DHT22;12498;50.880;12.096;2024-01-25T06:02:49;7.40;99.90
24374;DHT22;12498;50.880;12.096;2024-01-25T06:05:15;7.40;99.90
24374;DHT22;12498;50.880;12.096;2024-01-25T06:07:40;7.40;99.90
24374;DHT22;12498;50.880;12.096;2024-01-25T06:10:06;7.60;99.90
24374;DHT22;12498;50.880;12.096;2024-01-25T06:12:32;7.40;99.90
24374;DHT22;12498;50.880;12.096;2024-01-25T06:14:58;7.40;99.90
24374;DHT22;12498;50.880;12.096;2024-01-25T06:17:23;7.40;99.90
24374;DHT22;12498;50.880;12.096;2024-01-25T06:19:49;7.50;99.90
24374;DHT22;12498;50.880;12.096;2024-01-25T06:22:14;7.40;99.90
24374;DHT22;12498;50.880;12.096;2024-01-25T06:24:42;7.40;99.90
24374;DHT22;12498;50.880;12.096;2024-01-25T06:27:09;7.10;94.30
24374;DHT22;12498;50.880;12.096;2024-01-25T06:29:34;7.70;92.90
24374;DHT22;12498;50.880;12.096;2024-01-25T06:32:00;7.40;93.20
24374;DHT22;12498;50.880;12.096;2024-01-25T06:34:25;8.20;83.50
24374;DHT22;12498;50.880;12.096;2024-01-25T06:36:51;7.40;67.80
24374;DHT22;12498;50.880;12.096;2024-01-25T06:41:42;7.40;69.90
24374;DHT22;12498;50.880;12.096;2024-01-25T06:51:25;7.40;53.80
24374;DHT22;12498;50.880;12.096;2024-01-25T06:53:51;7.40;68.90
24374;DHT22;12498;50.880;12.096;2024-01-25T06:56:16;7.40;70.70
24374;DHT22;12498;50.880;12.096;2024-01-25T06:58:42;7.40;68.70
24374;DHT22;12498;50.880;12.096;2024-01-25T07:01:07;7.40;49.10
24374;DHT22;12498;50.880;12.096;2024-01-25T07:03:33;7.40;63.30
24374;DHT22;12498;50.880;12.096;2024-01-25T07:10:50;7.30;51.30
24374;DHT22;12498;50.880;12.096;2024-01-25T07:13:16;7.40;57.30
24374;DHT22;12498;50.880;12.096;2024-01-25T07:15:41;7.30;99.90
24374;DHT22;12498;50.880;12.096;2024-01-25T07:20:33;7.30;70.50
24374;DHT22;12498;50.880;12.096;2024-01-25T07:27:50;7.40;99.90
24374;DHT22;12498;50.880;12.096;2024-01-25T07:30:16;8.40;99.90
24374;DHT22;12498;50.880;12.096;2024-01-25T07:32:42;7.70;99.90
24374;DHT22;12498;50.880;12.096;2024-01-25T07:35:08;7.50;99.90
24374;DHT22;12498;50.880;12.096;2024-01-25T07:37:35;7.60;99.90
24374;DHT22;12498;50.880;12.096;2024-01-25T07:44:54;7.40;99.90
24374;DHT22;12498;50.880;12.096;2024-01-25T08:04:21;7.50;99.90
24374;DHT22;12498;50.880;12.096;2024-01-25T08:06:46;7.40;54.80
24374;DHT22;12498;50.880;12.096;2024-01-25T08:09:12;8.40;55.70
24374;DHT22;12498;50.880;12.096;2024-01-25T08:11:37;7.50;86.90
24374;DHT22;12498;50.880;12.096;2024-01-25T08:14:03;7.60;99.90
24374;DHT22;12498;50.880;12.096;2024-01-25T08:16:29;7.40;99.90
24374;DHT22;12498;50.880;12.096;2024-01-25T08:18:54;8.60;99.90
24374;DHT22;12498;50.880;12.096;2024-01-25T08:21:20;7.70;99.90
24374;DHT22;12498;50.880;12.096;2024-01-25T08:23:45;8.50;99.90
24374;DHT22;12498;50.880;12.096;2024-01-25T08:28:40;7.60;99.90
24374;DHT22;12498;50.880;12.096;2024-01-25T08:38:24;7.40;99.90
24374;DHT22;12498;50.880;12.096;2024-01-25T08:43:16;7.70;99.90
24374;DHT22;12498;50.880;12.096;2024-01-25T08:45:41;7.90;99.90
24374;DHT22;12498;50.880;12.096;2024-01-25T08:48:07;7.90;99.90
24374;DHT22;12498;50.880;12.096;2024-01-25T08:50:34;7.90;99.90
24374;DHT22;12498;50.880;12.096;2024-01-25T09:05:10;7.90;99.90
24374;DHT22;12498;50.880;12.096;2024-01-25T09:10:02;7.80;99.90
24374;DHT22;12498;50.880;12.096;2024-01-25T09:29:33;7.90;99.90
24374;DHT22;12498;50.880;12.096;2024-01-25T09:34:25;8.00;99.90
24374;DHT22;12498;50.880;12.096;2024-01-25T09:49:01;8.50;1.00
24374;DHT22;12498;50.880;12.096;2024-01-25T09:51:27;8.60;1.00
24374;DHT22;12498;50.880;12.096;2024-01-25T09:53:54;8.50;1.00
24374;DHT22;12498;50.880;12.096;2024-01-25T10:01:12;8.40;17.60
24374;DHT22;12498;50.880;12.096;2024-01-25T10:03:38;8.50;1.00
24374;DHT22;12498;50.880;12.096;2024-01-25T10:06:05;9.20;1.00
24374;DHT22;12498;50.880;12.096;2024-01-25T10:08:31;8.60;1.00
24374;DHT22;12498;50.880;12.096;2024-01-25T10:10:57;8.50;1.00
24374;DHT22;12498;50.880;12.096;2024-01-25T10:15:48;8.40;20.60
24374;DHT22;12498;50.880;12.096;2024-01-25T10:18:14;8.40;1.00
24374;DHT22;12498;50.880;12.096;2024-01-25T10:20:42;8.80;1.00
24374;DHT22;12498;50.880;12.096;2024-01-25T10:30:25;8.50;13.50
24374;DHT22;12498;50.880;12.096;2024-01-25T10:32:52;8.70;1.00
24374;DHT22;12498;50.880;12.096;2024-01-25T10:37:45;8.50;48.40
24374;DHT22;12498;50.880;12.096;2024-01-25T10:59:43;8.20;99.90
24374;DHT22;12498;50.880;12.096;2024-01-25T11:14:19;8.20;99.90
24374;DHT22;12498;50.880;12.096;2024-01-25T11:16:44;8.40;84.50
24374;DHT22;12498;50.880;12.096;2024-01-25T11:19:17;8.20;37.00
24374;DHT22;12498;50.880;12.096;2024-01-25T11:21:49;8.30;1.00
24374;DHT22;12498;50.880;12.096;2024-01-25T11:38:51;8.40;1.00
24374;DHT22;12498;50.880;12.096;2024-01-25T11:41:17;8.30;27.50
24374;DHT22;12498;50.880;12.096;2024-01-25T11:48:38;8.30;80.20
24374;DHT22;12498;50.880;12.096;2024-01-25T11:51:03;8.90;1.00
24374;DHT22;12498;50.880;12.096;2024-01-25T12:00:46;8.50;95.90
24374;DHT22;12498;50.880;12.096;2024-01-25T12:03:12;8.60;12.90
24374;DHT22;12498;50.880;12.096;2024-01-25T12:05:38;8.70;48.80
24374;DHT22;12498;50.880;12.096;2024-01-25T12:27:31;8.70;99.90
24374;DHT22;12498;50.880;12.096;2024-01-25T12:49:26;9.00;99.90
24374;DHT22;12498;50.880;12.096;2024-01-25T12:51:52;9.00;99.90
24374;DHT22;12498;50.880;12.096;2024-01-25T12:54:17;9.10;99.90
24374;DHT22;12498;50.880;12.096;2024-01-25T12:56:43;9.00;99.90
24374;DHT22;12498;50.880;12.096;2024-01-25T12:59:08;9.10;99.90
24374;DHT22;12498;50.880;12.096;2024-01-25T13:01:34;9.10;99.90
24374;DHT22;12498;50.880;12.096;2024-01-25T13:03:59;9.20;1.00
24374;DHT22;12498;50.880;12.096;2024-01-25T13:06:25;9.30;99.90
24374;DHT22;12498;50.880;12.096;2024-01-25T13:08:50;9.30;1.00
24374;DHT22;12498;50.880;12.096;2024-01-25T13:11:16;9.20;1.00
24374;DHT22;12498;50.880;12.096;2024-01-25T13:13:41;9.10;1.00
24374;DHT22;12498;50.880;12.096;2024-01-25T13:16:07;9.10;99.90
24374;DHT22;12498;50.880;12.096;2024-01-25T13:18:32;8.80;99.90
24374;DHT22;12498;50.880;12.096;2024-01-25T13:20:58;9.10;1.00
24374;DHT22;12498;50.880;12.096;2024-01-25T13:23:23;9.60;1.00
24374;DHT22;12498;50.880;12.096;2024-01-25T13:25:49;8.80;99.90
24374;DHT22;12498;50.880;12.096;2024-01-25T13:28:14;8.60;44.60
24374;DHT22;12498;50.880;12.096;2024-01-25T13:30:40;8.70;99.90
24374;DHT22;12498;50.880;12.096;2024-01-25T13:33:05;8.60;99.90
24374;DHT22;12498;50.880;12.096;2024-01-25T13:37:57;8.20;1.00
24374;DHT22;12498;50.880;12.096;2024-01-25T13:40:26;8.90;1.00
24374;DHT22;12498;50.880;12.096;2024-01-25T13:42:51;8.70;1.00
24374;DHT22;12498;50.880;12.096;2024-01-25T13:45:17;8.70;1.00
24374;DHT22;12498;50.880;12.096;2024-01-25T13:47:42;7.10;1.00
24374;DHT22;12498;50.880;12.096;2024-01-25T13:50:08;8.60;1.00
24374;DHT22;12498;50.880;12.096;2024-01-25T13:52:33;8.50;1.00
24374;DHT22;12498;50.880;12.096;2024-01-25T13:54:59;8.50;1.00
24374;DHT22;12498;50.880;12.096;2024-01-25T13:57:24;8.60;1.00
24374;DHT22;12498;50.880;12.096;2024-01-25T13:59:50;8.50;1.00
24374;DHT22;12498;50.880;12.096;2024-01-25T14:02:16;8.40;99.90
24374;DHT22;12498;50.880;12.096;2024-01-25T14:04:42;8.50;1.00
24374;DHT22;12498;50.880;12.096;2024-01-25T14:21:46;8.30;7.30
24374;DHT22;12498;50.880;12.096;2024-01-25T14:24:12;8.40;99.90
24374;DHT22;12498;50.880;12.096;2024-01-25T14:26:38;8.40;99.90
24374;DHT22;12498;50.880;12.096;2024-01-25T14:29:03;8.30;99.90
24374;DHT22;12498;50.880;12.096;2024-01-25T14:31:29;8.40;99.90
24374;DHT22;12498;50.880;12.096;2024-01-25T14:33:54;8.40;1.00
24374;DHT22;12498;50.880;12.096;2024-01-25T14:36:20;8.40;1.00
24374;DHT22;12498;50.880;12.096;2024-01-25T14:50:56;8.00;1.00
24374;DHT22;12498;50.880;12.096;2024-01-25T14:53:22;7.70;1.00
24374;DHT22;12498;50.880;12.096;2024-01-25T14:55:47;7.90;1.00
24374;DHT22;12498;50.880;12.096;2024-01-25T14:58:13;7.90;12.80
24374;DHT22;12498;50.880;12.096;2024-01-25T15:00:40;8.00;44.50
24374;DHT22;12498;50.880;12.096;2024-01-25T15:03:05;7.90;63.20
24374;DHT22;12498;50.880;12.096;2024-01-25T15:05:31;7.80;91.10
24374;DHT22;12498;50.880;12.096;2024-01-25T15:07:56;8.20;73.50
24374;DHT22;12498;50.880;12.096;2024-01-25T15:10:22;7.90;35.40
24374;DHT22;12498;50.880;12.096;2024-01-25T15:12:48;7.90;68.90
24374;DHT22;12498;50.880;12.096;2024-01-25T15:15:14;7.80;62.60
24374;DHT22;12498;50.880;12.096;2024-01-25T15:17:40;7.90;99.90
24374;DHT22;12498;50.880;12.096;2024-01-25T15:20:05;7.90;99.90
24374;DHT22;12498;50.880;12.096;2024-01-25T15:22:31;7.90;99.90
24374;DHT22;12498;50.880;12.096;2024-01-25T15:24:56;8.00;99.90
24374;DHT22;12498;50.880;12.096;2024-01-25T15:27:22;7.90;99.90
24374;DHT22;12498;50.880;12.096;2024-01-25T15:29:47;7.90;99.90
24374;DHT22;12498;50.880;12.096;2024-01-25T15:32:14;8.70;99.90
24374;DHT22;12498;50.880;12.096;2024-01-25T15:34:39;8.00;99.90
24374;DHT22;12498;50.880;12.096;2024-01-25T15:37:05;7.70;99.90
24374;DHT22;12498;50.880;12.096;2024-01-25T15:39:31;8.50;1.00
24374;DHT22;12498;50.880;12.096;2024-01-25T15:41:56;7.80;1.00
24374;DHT22;12498;50.880;12.096;2024-01-25T15:44:22;7.50;99.90
24374;DHT22;12498;50.880;12.096;2024-01-25T15:46:47;7.40;99.90
24374;DHT22;12498;50.880;12.096;2024-01-25T15:49:13;7.60;99.90
24374;DHT22;12498;50.880;12.096;2024-01-25T15:51:40;7.40;99.90
24374;DHT22;12498;50.880;12.096;2024-01-25T15:54:06;8.30;99.90
24374;DHT22;12498;50.880;12.096;2024-01-25T15:56:31;8.10;99.90
24374;DHT22;12498;50.880;12.096;2024-01-25T15:58:57;7.40;99.90
24374;DHT22;12498;50.880;12.096;2024-01-25T16:01:22;7.40;1.00
24374;DHT22;12498;50.880;12.096;2024-01-25T16:03:48;7.30;99.90
24374;DHT22;12498;50.880;12.096;2024-01-25T16:06:13;8.10;99.90
24374;DHT22;12498;50.880;12.096;2024-01-25T16:08:39;7.20;99.90
24374;DHT22;12498;50.880;12.096;2024-01-25T16:11:04;7.40;99.90
24374;DHT22;12498;50.880;12.096;2024-01-25T16:13:31;7.90;1.00
24374;DHT22;12498;50.880;12.096;2024-01-25T16:15:57;7.20;1.00
24374;DHT22;12498;50.880;12.096;2024-01-25T16:18:22;7.30;1.00
24374;DHT22;12498;50.880;12.096;2024-01-25T16:20:50;7.60;1.00
24374;DHT22;12498;50.880;12.096;2024-01-25T16:23:15;7.40;1.00
24374;DHT22;12498;50.880;12.096;2024-01-25T16:25:41;7.20;99.90
24374;DHT22;12498;50.880;12.096;2024-01-25T16:28:06;7.70;99.90
24374;DHT22;12498;50.880;12.096;2024-01-25T16:30:32;7.20;1.00
24374;DHT22;12498;50.880;12.096;2024-01-25T16:32:58;7.40;1.00
24374;DHT22;12498;50.880;12.096;2024-01-25T16:40:15;7.10;1.00
24374;DHT22;12498;50.880;12.096;2024-01-25T16:45:07;6.80;1.00
24374;DHT22;12498;50.880;12.096;2024-01-25T16:49:59;7.00;1.00
24374;DHT22;12498;50.880;12.096;2024-01-25T16:52:24;6.90;1.00
24374;DHT22;12498;50.880;12.096;2024-01-25T16:54:50;6.90;1.00
24374;DHT22;12498;50.880;12.096;2024-01-25T16:57:15;7.30;1.00
24374;DHT22;12498;50.880;12.096;2024-01-25T16:59:40;6.90;1.00
24374;DHT22;12498;50.880;12.096;2024-01-25T17:02:06;7.00;1.00
24374;DHT22;12498;50.880;12.096;2024-01-25T17:04:32;6.90;1.00
24374;DHT22;12498;50.880;12.096;2024-01-25T17:06:57;7.70;46.80
24374;DHT22;12498;50.880;12.096;2024-01-25T17:09:22;6.80;1.00
24374;DHT22;12498;50.880;12.096;2024-01-25T17:14:14;6.80;99.90
24374;DHT22;12498;50.880;12.096;2024-01-25T17:16:39;6.80;99.90
24374;DHT22;12498;50.880;12.096;2024-01-25T17:19:05;7.10;99.90
24374;DHT22;12498;50.880;12.096;2024-01-25T17:21:30;7.70;99.90
24374;DHT22;12498;50.880;12.096;2024-01-25T17:23:56;6.70;99.90
24374;DHT22;12498;50.880;12.096;2024-01-25T17:26:23;6.80;1.00
24374;DHT22;12498;50.880;12.096;2024-01-25T17:28:51;6.90;1.00
24374;DHT22;12498;50.880;12.096;2024-01-25T17:31:17;6.80;1.00
24374;DHT22;12498;50.880;12.096;2024-01-25T17:33:43;6.90;1.00
24374;DHT22;12498;50.880;12.096;2024-01-25T17:41:03;6.80;1.00
24374;DHT22;12498;50.880;12.096;2024-01-25T18:00:30;6.00;99.90
24374;DHT22;12498;50.880;12.096;2024-01-25T18:02:55;6.60;99.90
24374;DHT22;12498;50.880;12.096;2024-01-25T18:05:21;6.60;99.90
24374;DHT22;12498;50.880;12.096;2024-01-25T18:07:46;6.30;1.00
24374;DHT22;12498;50.880;12.096;2024-01-25T18:10:11;7.20;20.80
24374;DHT22;12498;50.880;12.096;2024-01-25T18:15:04;6.50;99.90
24374;DHT22;12498;50.880;12.096;2024-01-25T18:22:22;6.40;99.90
24374;DHT22;12498;50.880;12.096;2024-01-25T18:24:50;6.50;1.00
24374;DHT22;12498;50.880;12.096;2024-01-25T18:27:16;6.20;1.00
24374;DHT22;12498;50.880;12.096;2024-01-25T18:29:41;6.30;99.90
24374;DHT22;12498;50.880;12.096;2024-01-25T18:32:07;6.90;1.00
24374;DHT22;12498;50.880;12.096;2024-01-25T18:36:59;6.10;1.00
24374;DHT22;12498;50.880;12.096;2024-01-25T18:39:25;6.00;99.90
24374;DHT22;12498;50.880;12.096;2024-01-25T18:44:22;5.10;99.90
24374;DHT22;12498;50.880;12.096;2024-01-25T18:51:40;5.70;99.90
24374;DHT22;12498;50.880;12.096;2024-01-25T18:54:05;5.50;99.90
24374;DHT22;12498;50.880;12.096;2024-01-25T18:56:37;5.70;1.00
24374;DHT22;12498;50.880;12.096;2024-01-25T18:59:03;5.70;1.00
24374;DHT22;12498;50.880;12.096;2024-01-25T19:01:28;5.70;60.70
24374;DHT22;12498;50.880;12.096;2024-01-25T19:03:54;5.80;1.00
24374;DHT22;12498;50.880;12.096;2024-01-25T19:06:20;5.50;1.00
24374;DHT22;12498;50.880;12.096;2024-01-25T19:08:45;5.60;1.00
24374;DHT22;12498;50.880;12.096;2024-01-25T19:11:11;5.50;99.90
24374;DHT22;12498;50.880;12.096;2024-01-25T19:13:36;5.50;1.00
24374;DHT22;12498;50.880;12.096;2024-01-25T19:16:02;5.90;15.50
24374;DHT22;12498;50.880;12.096;2024-01-25T19:18:28;5.60;1.00
24374;DHT22;12498;50.880;12.096;2024-01-25T19:20:54;5.70;1.00
24374;DHT22;12498;50.880;12.096;2024-01-25T19:23:19;5.50;27.80
24374;DHT22;12498;50.880;12.096;2024-01-25T19:28:11;5.50;25.80
24374;DHT22;12498;50.880;12.096;2024-01-25T19:30:36;5.50;58.80
24374;DHT22;12498;50.880;12.096;2024-01-25T19:33:02;6.30;99.90
24374;DHT22;12498;50.880;12.096;2024-01-25T19:35:29;5.30;97.50
24374;DHT22;12498;50.880;12.096;2024-01-25T19:37:55;5.40;99.90
24374;DHT22;12498;50.880;12.096;2024-01-25T19:40:20;6.40;99.90
24374;DHT22;12498;50.880;12.096;2024-01-25T19:42:46;5.20;99.90
24374;DHT22;12498;50.880;12.096;2024-01-25T19:45:11;5.20;99.90
24374;DHT22;12498;50.880;12.096;2024-01-25T19:47:37;5.20;99.90
24374;DHT22;12498;50.880;12.096;2024-01-25T19:50:02;5.20;99.90
24374;DHT22;12498;50.880;12.096;2024-01-25T19:52:28;5.30;99.90
24374;DHT22;12498;50.880;12.096;2024-01-25T19:54:54;6.40;99.90
24374;DHT22;12498;50.880;12.096;2024-01-25T19:57:20;5.10;99.90
24374;DHT22;12498;50.880;12.096;2024-01-25T19:59:46;5.10;99.90
24374;DHT22;12498;50.880;12.096;2024-01-25T20:02:12;5.10;99.90
24374;DHT22;12498;50.880;12.096;2024-01-25T20:04:37;5.00;99.90
24374;DHT22;12498;50.880;12.096;2024-01-25T20:07:03;5.00;99.90
24374;DHT22;12498;50.880;12.096;2024-01-25T20:09:29;5.10;99.90
24374;DHT22;12498;50.880;12.096;2024-01-25T20:11:54;6.30;99.90
24374;DHT22;12498;50.880;12.096;2024-01-25T20:14:20;5.10;99.90
24374;DHT22;12498;50.880;12.096;2024-01-25T20:16:46;5.30;99.90
24374;DHT22;12498;50.880;12.096;2024-01-25T20:19:12;4.90;99.90
24374;DHT22;12498;50.880;12.096;2024-01-25T20:21:38;4.90;1.00
24374;DHT22;12498;50.880;12.096;2024-01-25T20:24:03;5.20;99.90
24374;DHT22;12498;50.880;12.096;2024-01-25T20:26:29;5.00;99.90
24374;DHT22;12498;50.880;12.096;2024-01-25T20:28:54;4.80;99.90
24374;DHT22;12498;50.880;12.096;2024-01-25T20:31:20;4.80;99.90
24374;DHT22;12498;50.880;12.096;2024-01-25T20:33:46;4.80;1.00
24374;DHT22;12498;50.880;12.096;2024-01-25T20:36:11;5.00;1.00
24374;DHT22;12498;50.880;12.096;2024-01-25T20:38:37;4.90;1.00
24374;DHT22;12498;50.880;12.096;2024-01-25T20:41:02;5.10;1.00
24374;DHT22;12498;50.880;12.096;2024-01-25T20:43:28;5.00;99.90
24374;DHT22;12498;50.880;12.096;2024-01-25T20:45:54;5.00;99.90
24374;DHT22;12498;50.880;12.096;2024-01-25T20:48:19;4.90;99.90
24374;DHT22;12498;50.880;12.096;2024-01-25T21:22:26;5.00;1.00
24374;DHT22;12498;50.880;12.096;2024-01-25T21:29:44;5.10;99.90
24374;DHT22;12498;50.880;12.096;2024-01-25T21:32:10;6.00;99.90
24374;DHT22;12498;50.880;12.096;2024-01-25T21:34:35;5.20;99.90
24374;DHT22;12498;50.880;12.096;2024-01-25T21:37:01;5.20;99.90
24374;DHT22;12498;50.880;12.096;2024-01-25T21:39:26;5.30;99.90
24374;DHT22;12498;50.880;12.096;2024-01-25T21:41:52;5.30;99.90
24374;DHT22;12498;50.880;12.096;2024-01-25T21:44:17;6.10;99.90
24374;DHT22;12498;50.880;12.096;2024-01-25T21:46:43;5.60;99.90
24374;DHT22;12498;50.880;12.096;2024-01-25T21:49:08;5.20;99.90
24374;DHT22;12498;50.880;12.096;2024-01-25T21:51:40;5.20;99.90
24374;DHT22;12498;50.880;12.096;2024-01-25T21:54:06;5.20;99.90
24374;DHT22;12498;50.880;12.096;2024-01-25T21:56:31;5.60;99.90
24374;DHT22;12498;50.880;12.096;2024-01-25T21:58:57;5.00;99.90
24374;DHT22;12498;50.880;12.096;2024-01-25T22:01:22;6.00;99.90
24374;DHT22;12498;50.880;12.096;2024-01-25T22:03:48;5.30;99.90
24374;DHT22;12498;50.880;12.096;2024-01-25T22:06:13;5.90;99.90
24374;DHT22;12498;50.880;12.096;2024-01-25T22:08:39;5.20;99.90
24374;DHT22;12498;50.880;12.096;2024-01-25T22:11:04;6.00;99.90
24374;DHT22;12498;50.880;12.096;2024-01-25T22:13:30;5.20;99.90
24374;DHT22;12498;50.880;12.096;2024-01-25T22:15:56;5.30;75.10
24374;DHT22;12498;50.880;12.096;2024-01-25T22:18:21;5.10;99.90
24374;DHT22;12498;50.880;12.096;2024-01-25T22:20:47;5.70;99.90
24374;DHT22;12498;50.880;12.096;2024-01-25T22:23:12;6.50;99.90
24374;DHT22;12498;50.880;12.096;2024-01-25T22:25:37;5.10;99.90
24374;DHT22;12498;50.880;12.096;2024-01-25T22:28:03;6.00;99.90
24374;DHT22;12498;50.880;12.096;2024-01-25T22:30:29;5.20;99.90
24374;DHT22;12498;50.880;12.096;2024-01-25T22:32:54;5.70;1.00
24374;DHT22;12498;50.880;12.096;2024-01-25T22:35:20;5.10;99.90
24374;DHT22;12498;50.880;12.096;2024-01-25T22:37:45;5.20;1.00
24374;DHT22;12498;50.880;12.096;2024-01-25T22:40:11;5.40;34.80
24374;DHT22;12498;50.880;12.096;2024-01-25T22:45:02;5.20;9.00
24374;DHT22;12498;50.880;12.096;2024-01-25T22:47:28;5.20;99.90
24374;DHT22;12498;50.880;12.096;2024-01-25T22:49:54;5.20;99.90
24374;DHT22;12498;50.880;12.096;2024-01-25T22:52:19;5.90;99.90
24374;DHT22;12498;50.880;12.096;2024-01-25T22:54:45;5.40;47.70
24374;DHT22;12498;50.880;12.096;2024-01-25T22:57:11;5.30;69.90
24374;DHT22;12498;50.880;12.096;2024-01-25T22:59:36;5.30;99.90
24374;DHT22;12498;50.880;12.096;2024-01-25T23:02:02;5.20;99.90
24374;DHT22;12498;50.880;12.096;2024-01-25T23:06:53;5.10;1.00
24374;DHT22;12498;50.880;12.096;2024-01-25T23:09:19;5.10;1.00
24374;DHT22;12498;50.880;12.096;2024-01-25T23:11:44;6.00;1.00
24374;DHT22;12498;50.880;12.096;2024-01-25T23:14:10;5.30;1.00
24374;DHT22;12498;50.880;12.096;2024-01-25T23:16:35;5.20;1.00
24374;DHT22;12498;50.880;12.096;2024-01-25T23:19:01;5.60;1.00
24374;DHT22;12498;50.880;12.096;2024-01-25T23:21:27;5.10;1.00
24374;DHT22;12498;50.880;12.096;2024-01-25T23:23:54;5.30;1.00
24374;DHT22;12498;50.880;12.096;2024-01-25T23:26:19;6.10;1.00
24374;DHT22;12498;50.880;12.096;2024-01-25T23:28:45;5.20;1.00
24374;DHT22;12498;50.880;12.096;2024-01-25T23:31:13;6.40;1.00
24374;DHT22;12498;50.880;12.096;2024-01-25T23:33:39;5.20;1.00
24374;DHT22;12498;50.880;12.096;2024-01-25T23:36:05;5.40;1.00
24374;DHT22;12498;50.880;12.096;2024-01-25T23:38:31;5.20;1.00
24374;DHT22;12498;50.880;12.096;2024-01-25T23:40:57;4.60;81.10
24374;DHT22;12498;50.880;12.096;2024-01-25T23:43:22;5.20;1.00
24374;DHT22;12498;50.880;12.096;2024-01-25T23:45:47;5.30;1.00
24374;DHT22;12498;50.880;12.096;2024-01-25T23:48:13;5.00;8.70
24374;DHT22;12498;50.880;12.096;2024-01-25T23:50:40;5.60;39.30
24374;DHT22;12498;50.880;12.096;2024-01-25T23:53:05;5.20;99.90
24374;DHT22;12498;50.880;12.096;2024-01-25T23:55:31;5.10;99.90
